Time;durP1;ratioP1;P1;durP2;ratioP2;P2;SDS_P1;SDS_P2;PMS_P1;PMS_P2;Temp;Humidity;BMP_temperature;BMP_pressure;BME280_temperature;BME280_humidity;BME280_pressure;Samples;Min_cycle;Max_cycle;Signal;HPM_P1;HPM_P2
2023/10/03 00:00:34;;;;;;;23.80;10.23;;;;;;;22.52;59.23;100933.50;2320029;76;51538;-75
2023/10/03 00:03:36;;;;;;;25.10;10.82;;;;;;;22.52;59.27;100934.33;2333237;76;51521;-74
2023/10/03 00:06:39;;;;;;;24.60;9.63;;;;;;;22.53;59.16;100925.72;2333271;76;50283;-73
2023/10/03 00:09:41;;;;;;;25.23;10.15;;;;;;;22.51;59.30;100921.89;2285376;76;52350;-73
2023/10/03 00:12:44;;;;;;;29.35;10.35;;;;;;;22.50;59.19;100913.47;2337633;75;51530;-74
2023/10/03 00:15:48;;;;;;;26.15;10.38;;;;;;;22.52;59.16;100905.19;2341987;76;50722;-74
2023/10/03 00:18:50;;;;;;;22.80;9.90;;;;;;;22.53;59.09;100912.23;2349470;75;50260;-75
2023/10/03 00:21:52;;;;;;;24.23;10.18;;;;;;;22.52;59.08;100899.80;2349026;75;50257;-74
2023/10/03 00:24:54;;;;;;;23.95;9.68;;;;;;;22.52;59.32;100903.31;2295932;76;49600;-75
2023/10/03 00:28:01;;;;;;;23.02;9.43;;;;;;;22.52;59.25;100885.79;2294614;76;49677;-75
2023/10/03 00:31:09;;;;;;;25.12;9.58;;;;;;;22.53;59.07;100892.01;2331728;76;50275;-75
2023/10/03 00:34:14;;;;;;;24.75;9.48;;;;;;;22.51;59.21;100884.14;2341861;75;22272;-75
2023/10/03 00:37:14;;;;;;;23.70;9.93;;;;;;;22.53;59.22;100875.83;2322348;76;22331;-75
2023/10/03 00:43:27;;;;;;;20.57;9.43;;;;;;;22.52;59.04;100867.44;2342311;75;22344;-74
2023/10/03 00:46:30;;;;;;;25.68;9.75;;;;;;;22.52;59.16;100864.73;2325952;76;50072;-73
2023/10/03 00:49:32;;;;;;;22.00;9.93;;;;;;;22.52;59.15;100855.30;2345292;76;50708;-75
2023/10/03 00:52:35;;;;;;;20.37;9.05;;;;;;;22.52;59.04;100852.61;2321199;76;51159;-75
2023/10/03 00:55:38;;;;;;;20.40;9.23;;;;;;;22.52;59.12;100842.64;2343344;75;49779;-72
2023/10/03 00:58:41;;;;;;;22.82;9.38;;;;;;;22.53;58.94;100842.12;2332050;75;50666;-69
2023/10/03 01:01:46;;;;;;;24.65;9.63;;;;;;;22.53;58.97;100836.73;2328208;74;51175;-70
2023/10/03 01:04:47;;;;;;;22.25;9.25;;;;;;;22.51;58.96;100835.60;2343019;75;22372;-75
2023/10/03 01:07:50;;;;;;;22.62;9.65;;;;;;;22.52;59.23;100821.59;2296672;76;51137;-75
2023/10/03 01:10:55;;;;;;;24.45;9.30;;;;;;;22.52;59.01;100821.59;2342733;75;50038;-73
2023/10/03 01:13:59;;;;;;;18.77;8.73;;;;;;;22.52;59.00;100821.59;2340602;76;51550;-72
2023/10/03 01:17:02;;;;;;;22.15;9.23;;;;;;;22.52;59.00;100822.94;2287409;76;51747;-74
2023/10/03 01:20:16;;;;;;;22.25;9.50;;;;;;;22.53;58.92;100811.11;2332881;75;51536;-74
2023/10/03 01:23:10;;;;;;;20.90;9.60;;;;;;;22.53;58.94;100809.76;2317253;75;22407;-73
2023/10/03 01:26:13;;;;;;;22.30;9.23;;;;;;;22.51;59.03;100802.42;2306262;76;50285;-74
2023/10/03 01:29:15;;;;;;;24.80;9.28;;;;;;;22.52;59.00;100808.11;2318390;76;51551;-75
2023/10/03 01:32:18;;;;;;;19.67;9.13;;;;;;;22.51;58.94;100795.67;2280217;76;52327;-75
2023/10/03 01:35:22;;;;;;;21.57;9.23;;;;;;;22.51;58.94;100793.80;2318449;76;51489;-75
2023/10/03 01:38:24;;;;;;;18.45;9.10;;;;;;;22.52;58.89;100790.58;2332882;76;22456;-75
2023/10/03 01:41:26;;;;;;;20.68;8.33;;;;;;;22.51;58.89;100788.41;2280344;76;52597;-75
2023/10/03 01:44:29;;;;;;;21.55;9.55;;;;;;;22.51;58.94;100786.23;2332410;76;50712;-75
2023/10/03 01:47:31;;;;;;;20.37;8.20;;;;;;;22.51;58.86;100786.23;2296045;76;51618;-75
2023/10/03 01:50:34;;;;;;;21.00;9.40;;;;;;;22.52;58.88;100794.11;2292486;76;51590;-75
2023/10/03 01:53:38;;;;;;;19.37;9.18;;;;;;;22.52;58.84;100787.88;2317727;76;51560;-75
2023/10/03 01:56:40;;;;;;;27.03;9.27;;;;;;;22.51;58.92;100777.62;2292513;76;50093;-74
2023/10/03 01:59:43;;;;;;;19.52;9.28;;;;;;;22.50;58.99;100778.64;2318284;76;50776;-74
2023/10/03 02:02:46;;;;;;;23.07;9.25;;;;;;;22.50;59.02;100767.03;2292315;76;51526;-75
2023/10/03 02:05:48;;;;;;;24.55;9.10;;;;;;;22.50;59.01;100762.98;2266833;76;51715;-75
2023/10/03 02:08:50;;;;;;;19.00;9.33;;;;;;;22.50;58.99;100756.24;2316558;76;51502;-74
2023/10/03 02:11:53;;;;;;;22.35;9.00;;;;;;;22.49;59.06;100762.69;2316630;76;50685;-73
2023/10/03 02:14:55;;;;;;;17.23;8.58;;;;;;;22.50;59.02;100753.55;2281998;77;50121;-75
2023/10/03 02:17:58;;;;;;;15.78;8.60;;;;;;;22.49;59.02;100743.81;2237842;77;50735;-74
2023/10/03 02:21:02;;;;;;;16.95;8.63;;;;;;;22.49;59.06;100741.11;2243326;77;51229;-74
2023/10/03 02:24:06;;;;;;;24.92;8.78;;;;;;;22.50;58.97;100729.28;2243417;77;50313;-74
2023/10/03 02:27:09;;;;;;;18.50;8.13;;;;;;;22.49;58.95;100728.98;2298734;76;51518;-73
2023/10/03 02:30:13;;;;;;;17.70;7.72;;;;;;;22.50;58.98;100725.23;2243800;77;51484;-74
2023/10/03 02:33:16;;;;;;;17.95;8.28;;;;;;;22.49;59.05;100713.62;2298240;77;53515;-72
2023/10/03 02:36:19;;;;;;;19.92;8.65;;;;;;;22.49;59.09;100704.71;2298729;76;51494;-76
2023/10/03 02:39:26;;;;;;;17.45;8.78;;;;;;;22.49;59.02;100699.32;2268014;77;52164;-74
2023/10/03 02:42:26;;;;;;;19.52;8.55;;;;;;;22.48;59.08;100694.45;2243415;77;22407;-75
2023/10/03 02:45:28;;;;;;;18.45;8.20;;;;;;;22.46;59.04;100684.39;2204517;77;51198;-74
2023/10/03 02:48:30;;;;;;;19.12;7.97;;;;;;;22.46;59.04;100673.60;2269617;77;50695;-74
2023/10/03 02:51:32;;;;;;;20.90;7.72;;;;;;;22.49;58.95;100669.66;2256426;77;51529;-74
2023/10/03 02:54:35;;;;;;;30.97;9.23;;;;;;;22.48;59.45;100670.68;2231431;77;51008;-73
2023/10/03 02:57:38;;;;;;;30.92;9.10;;;;;;;22.46;59.78;100657.42;2256201;77;51505;-73
2023/10/03 03:00:43;;;;;;;25.48;8.63;;;;;;;22.47;59.88;100652.33;2281283;77;51546;-75
2023/10/03 03:03:46;;;;;;;26.02;9.18;;;;;;;22.46;59.90;100645.81;2288640;77;50317;-74
2023/10/03 03:06:50;;;;;;;18.77;8.28;;;;;;;22.45;60.06;100635.52;2256350;77;51435;-75
2023/10/03 03:09:56;;;;;;;25.10;8.40;;;;;;;22.44;60.03;100631.70;2256823;77;22438;-73
2023/10/03 03:12:55;;;;;;;23.77;7.20;;;;;;;22.45;59.79;100626.61;2288421;77;22327;-72
2023/10/03 03:16:00;;;;;;;19.90;7.90;;;;;;;22.44;59.58;100620.92;2302500;76;51532;-73
2023/10/03 03:19:05;;;;;;;20.00;8.10;;;;;;;22.44;59.95;100623.62;2275616;76;52466;-74
2023/10/03 03:22:06;;;;;;;14.60;6.50;;;;;;;22.45;59.32;100615.83;2306516;76;22348;-72
2023/10/03 03:25:10;;;;;;;19.27;7.40;;;;;;;22.46;59.47;100616.16;2332180;76;22365;-73
2023/10/03 03:28:15;;;;;;;23.65;8.73;;;;;;;22.46;59.01;100606.72;2306281;76;50101;-74
2023/10/03 03:31:26;;;;;;;24.87;7.55;;;;;;;22.48;58.94;100601.92;2332440;76;51550;-74
2023/10/03 03:34:29;;;;;;;29.25;8.95;;;;;;;22.46;59.28;100591.36;2318541;76;22298;-74
2023/10/03 03:37:37;;;;;;;22.15;8.70;;;;;;;22.46;58.99;100587.84;2318435;76;50280;-72
2023/10/03 03:40:36;;;;;;;17.27;7.55;;;;;;;22.45;58.73;100580.77;2305705;76;22400;-74
2023/10/03 03:43:39;;;;;;;20.92;7.08;;;;;;;22.46;59.07;100571.67;2305867;76;50927;-74
2023/10/03 13:34:17;;;;;;;23.20;9.80;;;;;;;21.89;58.66;100244.81;2420747;72;26167;-77
2023/10/03 13:37:20;;;;;;;24.63;10.65;;;;;;;21.87;58.56;100257.66;2334629;76;50496;-75
2023/10/03 13:40:23;;;;;;;27.13;10.58;;;;;;;21.91;58.41;100254.86;2338941;75;49842;-75
2023/10/03 13:43:27;;;;;;;22.70;9.90;;;;;;;21.95;58.30;100264.14;2312439;76;50525;-78
2023/10/03 13:46:34;;;;;;;22.10;10.10;;;;;;;22.01;58.16;100257.59;2297264;76;22671;-74
2023/10/03 13:49:36;;;;;;;21.65;10.40;;;;;;;22.05;58.01;100255.61;2307606;76;50512;-76
2023/10/03 13:52:40;;;;;;;24.98;10.08;;;;;;;22.10;57.83;100266.56;2334477;76;51477;-77
2023/10/03 13:55:45;;;;;;;23.50;10.20;;;;;;;22.14;57.75;100264.25;2339412;75;49824;-74
2023/10/03 13:58:49;;;;;;;25.45;9.75;;;;;;;22.20;57.67;100266.66;2305041;75;50254;-74
2023/10/03 14:01:51;;;;;;;24.43;9.88;;;;;;;22.24;57.58;100265.98;2288468;76;22197;-75
2023/10/03 14:04:53;;;;;;;30.35;10.38;;;;;;;22.27;57.50;100280.41;2285251;75;51263;-75
2023/10/03 14:07:56;;;;;;;23.42;9.93;;;;;;;22.28;57.42;100269.91;2308842;76;50180;-74
2023/10/03 14:10:59;;;;;;;21.95;10.45;;;;;;;22.31;57.41;100276.73;2306080;76;52131;-74
2023/10/03 14:14:03;;;;;;;23.32;10.18;;;;;;;22.32;57.33;100279.20;2339485;75;50680;-74
2023/10/03 14:17:07;;;;;;;26.35;10.23;;;;;;;22.34;57.35;100269.03;2289343;76;50616;-74
2023/10/03 14:20:09;;;;;;;24.37;9.93;;;;;;;22.37;57.32;100271.81;2313305;76;51159;-74
2023/10/03 14:23:12;;;;;;;37.63;12.73;;;;;;;22.38;57.31;100274.83;2339813;75;50166;-75
2023/10/03 14:26:14;;;;;;;29.80;14.63;;;;;;;22.41;57.42;100270.35;2339879;75;51325;-74
2023/10/03 14:29:16;;;;;;;36.75;15.55;;;;;;;22.42;57.56;100269.83;2313425;76;50529;-75
2023/10/03 14:32:21;;;;;;;33.02;14.38;;;;;;;22.42;57.80;100271.99;2336470;75;50853;-77
2023/10/03 14:35:23;;;;;;;33.70;14.23;;;;;;;22.44;57.81;100267.22;2334737;75;21713;-75
2023/10/03 14:38:26;;;;;;;44.38;14.98;;;;;;;22.46;57.69;100267.83;2300575;76;49993;-76
2023/10/03 14:41:30;;;;;;;47.70;14.20;;;;;;;22.51;57.76;100272.05;2288259;76;51453;-77
2023/10/03 14:44:39;;;;;;;42.30;14.40;;;;;;;22.59;57.74;100261.52;2295845;75;50142;-77
2023/10/03 14:47:37;;;;;;;47.55;14.03;;;;;;;22.63;57.75;100261.36;2306329;76;22631;-77
2023/10/03 14:50:41;;;;;;;40.15;13.55;;;;;;;22.63;57.74;100272.15;2290868;76;50150;-76
2023/10/03 14:53:46;;;;;;;38.10;13.25;;;;;;;22.61;57.86;100275.61;2297431;76;51598;-76
2023/10/03 14:56:47;;;;;;;37.48;12.70;;;;;;;22.59;57.89;100278.52;2308989;76;22242;-76
2023/10/03 14:59:50;;;;;;;33.85;13.22;;;;;;;22.59;57.99;100287.13;2298147;76;51064;-77
2023/10/03 15:02:53;;;;;;;35.43;12.68;;;;;;;22.60;57.99;100276.64;2263937;78;51496;-76
2023/10/03 15:05:55;;;;;;;38.10;12.98;;;;;;;22.58;58.05;100282.27;2253191;76;50316;-77
2023/10/03 15:08:57;;;;;;;40.90;12.75;;;;;;;22.58;58.08;100288.16;2282252;77;51470;-76
2023/10/03 15:12:00;;;;;;;38.17;13.18;;;;;;;22.58;58.10;100292.20;2293831;75;51503;-76
2023/10/03 15:15:04;;;;;;;37.53;12.78;;;;;;;22.57;58.20;100282.47;2305221;76;50514;-77
2023/10/03 15:18:06;;;;;;;43.30;12.60;;;;;;;22.60;58.34;100285.55;2291119;76;50022;-76
2023/10/03 15:21:09;;;;;;;32.98;12.33;;;;;;;22.65;58.23;100275.45;2283688;76;52150;-76
2023/10/03 15:24:13;;;;;;;46.85;12.88;;;;;;;22.63;58.32;100269.45;2301731;76;21689;-76
2023/10/03 15:27:19;;;;;;;32.93;11.50;;;;;;;22.64;58.25;100279.21;2295234;76;50410;-75
2023/10/03 15:30:20;;;;;;;41.37;12.03;;;;;;;22.65;58.22;100284.08;2288586;76;22871;-76
2023/10/03 15:33:22;;;;;;;48.10;11.73;;;;;;;22.64;58.25;100273.00;2260687;77;50848;-74
2023/10/03 15:36:24;;;;;;;48.87;11.95;;;;;;;22.68;58.02;100268.27;2253263;77;50541;-73
2023/10/03 15:39:27;;;;;;;36.55;11.53;;;;;;;22.68;58.09;100266.10;2273720;77;51392;-73
2023/10/03 15:42:29;;;;;;;37.15;11.10;;;;;;;22.65;58.65;100266.55;2215838;79;51349;-74
2023/10/03 15:45:35;;;;;;;37.80;11.43;;;;;;;22.66;59.29;100263.64;2234951;77;50224;-76
2023/10/03 15:48:37;;;;;;;34.15;11.20;;;;;;;22.64;59.28;100260.33;2287944;77;22340;-74
2023/10/03 15:51:41;;;;;;;35.40;11.05;;;;;;;22.67;59.52;100261.23;2235738;79;51544;-73
2023/10/03 15:54:43;;;;;;;41.80;12.60;;;;;;;22.70;59.87;100266.19;2265589;77;51442;-72
2023/10/03 15:57:45;;;;;;;61.73;12.82;;;;;;;22.72;59.96;100272.19;2241130;77;52439;-73
2023/10/03 16:00:47;;;;;;;50.85;13.85;;;;;;;22.77;60.14;100275.05;2284536;77;50628;-72
2023/10/03 16:03:50;;;;;;;100.00;16.37;;;;;;;22.77;60.12;100287.72;2226380;78;51477;-74
2023/10/03 16:06:53;;;;;;;87.92;15.55;;;;;;;22.78;60.46;100393.22;2233326;77;51298;-74
2023/10/03 16:09:56;;;;;;;83.80;14.95;;;;;;;22.72;61.26;100415.14;2290776;77;50583;-75
2023/10/03 16:12:58;;;;;;;75.00;14.73;;;;;;;22.71;61.15;100391.92;2244973;77;52747;-75
2023/10/03 16:16:00;;;;;;;70.25;14.98;;;;;;;22.69;61.19;100388.61;2290745;77;50371;-74
2023/10/03 16:19:04;;;;;;;55.55;13.70;;;;;;;22.67;61.52;100402.83;2279720;76;50600;-76
2023/10/03 16:22:06;;;;;;;83.78;14.65;;;;;;;22.65;61.61;100394.12;2218699;77;52650;-71
2023/10/03 16:25:10;;;;;;;62.50;14.47;;;;;;;22.72;61.02;100381.95;2224698;78;51378;-73
2023/10/03 16:28:13;;;;;;;74.42;14.70;;;;;;;22.67;61.36;100378.55;2232577;79;50685;-73
2023/10/03 16:31:15;;;;;;;63.35;14.87;;;;;;;22.65;61.65;100399.52;2197815;78;51561;-73
2023/10/03 16:34:17;;;;;;;65.57;15.25;;;;;;;22.65;61.91;100424.31;2246598;76;50170;-74
2023/10/03 16:37:19;;;;;;;60.10;13.98;;;;;;;22.65;62.28;100435.92;2294367;76;50521;-76
2023/10/03 16:40:22;;;;;;;83.95;14.40;;;;;;;22.67;62.17;100452.72;2273275;77;50222;-74
2023/10/03 16:43:24;;;;;;;65.60;14.65;;;;;;;22.67;62.59;100462.16;2294116;77;51437;-75
2023/10/03 16:46:27;;;;;;;71.12;14.80;;;;;;;22.68;62.89;100486.73;2298741;76;51363;-75
2023/10/03 16:49:29;;;;;;;70.47;15.75;;;;;;;22.68;63.09;100502.91;2294327;76;50165;-76
2023/10/03 16:52:31;;;;;;;59.08;13.90;;;;;;;22.69;63.07;100524.00;2273113;77;49953;-75
2023/10/03 16:55:33;;;;;;;55.75;13.55;;;;;;;22.69;62.92;100516.73;2273283;77;50272;-74
2023/10/03 16:58:36;;;;;;;58.80;13.80;;;;;;;22.70;62.87;100514.33;2301054;76;51432;-74
2023/10/03 17:01:38;;;;;;;65.08;14.35;;;;;;;22.70;62.90;100504.06;2311972;76;51107;-75
2023/10/03 17:04:41;;;;;;;53.45;14.60;;;;;;;22.69;62.89;100508.64;2335225;75;51415;-74
2023/10/03 17:07:44;;;;;;;55.83;13.45;;;;;;;22.67;62.92;100523.38;2311270;76;51494;-73
2023/10/03 17:10:46;;;;;;;49.98;12.85;;;;;;;22.67;62.83;100520.15;2277609;75;52667;-75
2023/10/03 17:13:48;;;;;;;43.87;13.32;;;;;;;22.66;62.99;100531.99;2333590;76;50141;-76
2023/10/03 17:16:51;;;;;;;43.30;12.28;;;;;;;22.66;63.03;100546.83;2333711;75;51392;-75
2023/10/03 17:19:54;;;;;;;54.60;12.80;;;;;;;22.65;63.15;100543.80;2338195;75;50647;-76
2023/10/03 17:22:57;;;;;;;57.80;12.63;;;;;;;22.65;63.40;100549.20;2333536;75;50160;-75
2023/10/03 17:26:00;;;;;;;69.90;13.50;;;;;;;22.67;63.25;100549.00;2311794;76;51078;-75
2023/10/03 17:29:10;;;;;;;50.67;13.18;;;;;;;22.66;64.23;100534.69;2338031;75;51478;-75
2023/10/03 17:32:10;;;;;;;44.55;11.60;;;;;;;22.68;63.81;100564.12;2309241;76;22337;-74
2023/10/03 17:35:12;;;;;;;43.10;12.13;;;;;;;22.71;64.03;100577.19;2276842;76;52781;-74
2023/10/03 17:38:15;;;;;;;50.98;11.55;;;;;;;22.71;64.18;100579.87;2302088;76;50630;-75
2023/10/03 17:41:17;;;;;;;47.95;12.65;;;;;;;22.82;63.79;100563.88;2301588;76;50556;-74
2023/10/03 17:44:20;;;;;;;48.15;12.85;;;;;;;22.76;63.80;100560.70;2279395;76;52724;-73
2023/10/03 17:47:23;;;;;;;42.43;12.35;;;;;;;22.76;63.85;100590.37;2291771;76;51403;-73
2023/10/03 17:50:26;;;;;;;38.33;12.53;;;;;;;22.76;63.88;100596.26;2272311;76;52383;-73
2023/10/03 17:53:28;;;;;;;47.33;11.83;;;;;;;22.76;63.82;100590.86;2289189;76;51217;-73
2023/10/03 17:56:30;;;;;;;50.25;12.33;;;;;;;22.70;64.03;100611.42;2295790;76;50702;-73
2023/10/03 17:59:33;;;;;;;47.08;11.70;;;;;;;22.68;64.04;100639.12;2266870;76;51046;-73
2023/10/03 18:02:35;;;;;;;48.45;12.13;;;;;;;22.67;63.98;100649.61;2256041;77;51308;-73
2023/10/03 18:05:37;;;;;;;49.38;11.43;;;;;;;22.67;63.84;100642.87;2291068;76;52070;-74
2023/10/03 18:08:40;;;;;;;39.83;11.85;;;;;;;22.65;63.85;100655.73;2328087;76;51343;-73
2023/10/03 18:11:43;;;;;;;44.42;11.53;;;;;;;22.65;63.79;100657.08;2324056;75;50526;-73
2023/10/03 18:14:45;;;;;;;39.88;11.57;;;;;;;22.66;63.84;100649.81;2330465;76;51609;-73
2023/10/03 18:17:50;;;;;;;41.10;10.70;;;;;;;22.64;63.75;100660.83;2285738;76;50535;-73
2023/10/03 18:20:53;;;;;;;36.75;10.43;;;;;;;22.68;63.40;100676.06;2250242;76;51522;-73
2023/10/03 18:23:55;;;;;;;42.55;11.50;;;;;;;22.71;63.20;100680.53;2271399;76;52323;-73
2023/10/03 18:26:57;;;;;;;47.98;12.28;;;;;;;22.73;63.46;100699.19;2308626;76;50167;-73
2023/10/03 18:29:59;;;;;;;44.50;10.93;;;;;;;22.72;63.48;100717.77;2308708;76;50596;-73
2023/10/03 18:33:02;;;;;;;41.58;11.65;;;;;;;22.68;63.59;100725.44;2297884;76;51340;-73
2023/10/03 18:36:04;;;;;;;42.50;10.80;;;;;;;22.66;63.57;100730.23;2327869;75;50607;-72
2023/10/03 18:39:08;;;;;;;39.88;11.10;;;;;;;22.65;63.60;100733.95;2286093;76;52484;-73
2023/10/03 18:42:10;;;;;;;37.30;11.30;;;;;;;22.63;63.73;100731.97;2325391;75;51359;-73
2023/10/03 18:45:13;;;;;;;35.40;10.95;;;;;;;22.65;63.72;100726.38;2321587;75;50658;-74
2023/10/03 18:48:15;;;;;;;34.83;10.03;;;;;;;22.65;63.72;100731.25;2272313;76;51226;-74
2023/10/03 18:51:17;;;;;;;30.20;10.48;;;;;;;22.63;63.76;100725.23;2297780;76;50271;-73
2023/10/03 18:54:20;;;;;;;32.48;10.50;;;;;;;22.64;63.77;100745.78;2297501;76;50574;-74
2023/10/03 18:57:24;;;;;;;32.13;11.25;;;;;;;22.64;63.71;100754.41;2297960;76;50373;-75
2023/10/03 19:00:26;;;;;;;33.90;10.78;;;;;;;22.64;63.82;100788.94;2298144;76;51516;-75
2023/10/03 19:03:30;;;;;;;48.40;10.48;;;;;;;22.63;63.76;100794.53;2277932;76;50893;-75
2023/10/03 19:06:34;;;;;;;34.95;10.15;;;;;;;22.61;63.77;100800.15;2291444;76;51486;-75
2023/10/03 19:09:37;;;;;;;32.20;10.88;;;;;;;22.60;63.84;100816.00;2317762;75;51583;-75
2023/10/03 19:12:39;;;;;;;29.25;10.45;;;;;;;22.63;63.82;100822.33;2289359;76;50059;-75
2023/10/03 19:15:41;;;;;;;32.95;10.55;;;;;;;22.65;63.73;100837.79;2311677;76;51485;-75
2023/10/03 19:18:44;;;;;;;32.83;9.78;;;;;;;22.63;63.75;100836.33;2289689;76;52362;-76
2023/10/03 19:21:46;;;;;;;31.57;10.13;;;;;;;22.64;63.79;100864.98;2297282;76;50069;-74
2023/10/03 19:24:51;;;;;;;36.88;9.75;;;;;;;22.65;63.74;100880.13;2297505;75;51375;-75
2023/10/03 19:27:53;;;;;;;39.25;10.82;;;;;;;22.64;63.76;100889.27;2331664;76;22299;-74
2023/10/03 19:30:55;;;;;;;29.27;10.10;;;;;;;22.65;63.75;100899.00;2331534;76;51438;-74
2023/10/03 19:33:57;;;;;;;24.37;9.90;;;;;;;22.61;63.90;100903.45;2297448;76;49999;-74
2023/10/03 19:37:00;;;;;;;35.20;10.65;;;;;;;22.61;63.89;100909.38;2230036;77;51671;-74
2023/10/03 19:40:03;;;;;;;34.18;10.03;;;;;;;22.63;63.86;100917.25;2256989;77;51492;-74
2023/10/03 19:43:05;;;;;;;32.50;10.88;;;;;;;22.64;63.97;100925.15;2256648;77;50055;-73
2023/10/03 19:46:12;;;;;;;35.70;11.15;;;;;;;22.65;63.93;100931.37;2256906;77;50660;-71
2023/10/03 19:49:14;;;;;;;29.12;10.38;;;;;;;22.63;63.97;100938.30;2236125;77;22773;-71
2023/10/03 19:52:15;;;;;;;28.27;10.13;;;;;;;22.66;63.88;100947.86;2256869;77;22262;-73
2023/10/03 19:55:18;;;;;;;25.92;9.58;;;;;;;22.67;63.67;100953.06;2291421;77;50638;-73
2023/10/03 19:58:20;;;;;;;27.50;10.25;;;;;;;22.66;63.53;100968.94;2234935;77;50248;-73
2023/10/03 20:01:23;;;;;;;25.48;11.18;;;;;;;22.66;63.53;100964.89;2258573;77;51836;-73
2023/10/03 20:04:25;;;;;;;29.00;12.10;;;;;;;22.67;63.65;100971.94;2258660;77;50722;-73
2023/10/03 20:07:27;;;;;;;27.80;11.95;;;;;;;22.66;63.74;100974.33;2258930;77;51426;-74
2023/10/03 20:10:29;;;;;;;29.75;12.35;;;;;;;22.65;63.55;100983.97;2259034;77;51469;-73
2023/10/03 20:13:32;;;;;;;32.40;12.23;;;;;;;22.61;63.39;100995.69;2258372;77;49914;-73
2023/10/03 20:16:34;;;;;;;29.57;12.82;;;;;;;22.60;63.38;101013.70;2258664;77;51036;-74
2023/10/03 20:19:36;;;;;;;32.50;12.25;;;;;;;22.58;63.47;101023.89;2258698;77;51438;-74
2023/10/03 20:22:42;;;;;;;27.00;11.78;;;;;;;22.56;63.45;101034.04;2255427;77;50102;-74
2023/10/03 20:25:45;;;;;;;32.60;13.00;;;;;;;22.54;63.23;101030.70;2257485;77;52341;-74
2023/10/03 20:28:47;;;;;;;31.85;11.88;;;;;;;22.52;63.24;101041.38;2257365;77;51425;-73
2023/10/03 20:31:50;;;;;;;31.45;12.05;;;;;;;22.51;63.28;101038.38;2290057;77;51420;-73
2023/10/03 20:34:52;;;;;;;28.10;11.20;;;;;;;22.51;63.37;101054.55;2234197;77;51435;-73
2023/10/03 20:37:54;;;;;;;26.68;11.25;;;;;;;22.51;63.26;101074.78;2306618;76;51486;-73
2023/10/03 20:40:57;;;;;;;28.50;12.03;;;;;;;22.50;63.35;101078.48;2280103;77;52337;-72
2023/10/03 20:44:00;;;;;;;29.90;11.22;;;;;;;22.50;63.26;101073.09;2305592;77;50170;-72
2023/10/03 20:47:04;;;;;;;29.35;10.88;;;;;;;22.49;63.30;101072.79;2280253;77;51503;-73
2023/10/03 20:50:13;;;;;;;25.57;10.55;;;;;;;22.48;63.32;101080.55;2256165;77;51187;-74
2023/10/03 20:53:19;;;;;;;25.97;10.82;;;;;;;22.48;63.30;101081.41;2312314;76;50403;-73
2023/10/03 20:56:20;;;;;;;25.15;11.50;;;;;;;22.48;63.26;101105.67;2307786;76;22751;-72
2023/10/03 20:59:22;;;;;;;29.40;11.15;;;;;;;22.48;63.27;101104.81;2313178;76;51437;-72
2023/10/03 21:02:27;;;;;;;24.32;11.10;;;;;;;22.48;63.22;101112.42;2281800;76;51405;-73
2023/10/03 21:05:28;;;;;;;25.25;10.45;;;;;;;22.46;63.28;101127.95;2282654;77;22247;-74
2023/10/03 21:08:31;;;;;;;26.57;10.53;;;;;;;22.47;63.24;101131.48;2313078;75;50181;-74
2023/10/03 21:11:33;;;;;;;29.18;11.33;;;;;;;22.46;63.23;101142.78;2313017;76;50747;-73
2023/10/03 21:14:36;;;;;;;32.13;10.80;;;;;;;22.48;63.17;101157.40;2256505;75;52328;-73
2023/10/03 21:17:38;;;;;;;26.35;10.75;;;;;;;22.47;63.17;101155.22;2308224;77;50271;-74
2023/10/03 21:20:42;;;;;;;22.85;9.70;;;;;;;22.46;63.16;101166.23;2280104;77;50294;-74
2023/10/03 21:23:44;;;;;;;22.02;10.13;;;;;;;22.46;63.21;101175.66;2310395;77;50200;-72
2023/10/03 21:26:46;;;;;;;24.43;10.95;;;;;;;22.46;63.10;101174.31;2279228;77;50230;-72
2023/10/03 21:29:50;;;;;;;24.77;10.08;;;;;;;22.46;63.10;101172.97;2279245;77;50290;-73
2023/10/03 21:32:53;;;;;;;18.70;8.98;;;;;;;22.46;63.08;101181.89;2305099;77;51571;-72
2023/10/03 21:35:56;;;;;;;23.15;9.78;;;;;;;22.45;63.08;101185.59;2312589;76;50704;-73
2023/10/03 21:38:58;;;;;;;18.95;9.23;;;;;;;22.46;63.06;101199.94;2267700;76;51390;-73
2023/10/03 21:42:01;;;;;;;26.10;9.83;;;;;;;22.46;63.04;101206.67;2318252;76;49888;-73
2023/10/03 21:45:04;;;;;;;20.97;9.60;;;;;;;22.45;63.03;101201.77;2316898;76;51596;-73
2023/10/03 21:48:11;;;;;;;19.12;9.15;;;;;;;22.45;63.03;101208.52;2290019;76;50305;-73
2023/10/03 21:51:11;;;;;;;20.15;9.58;;;;;;;22.44;63.05;101213.59;2268711;77;22274;-73
2023/10/03 21:54:13;;;;;;;22.32;9.40;;;;;;;22.45;63.06;101225.22;2221478;77;52343;-72
2023/10/03 21:57:15;;;;;;;18.80;9.10;;;;;;;22.44;62.99;101228.95;2246107;78;53629;-72
2023/10/03 22:00:34;;;;;;;18.05;8.70;;;;;;;22.44;62.99;101229.78;2245994;78;51444;-73
2023/10/03 22:03:31;;;;;;;19.48;10.05;;;;;;;22.44;62.96;101236.52;2248009;76;22912;-72
2023/10/03 22:06:33;;;;;;;16.35;8.78;;;;;;;22.45;63.16;101243.57;2274299;78;49593;-72
2023/10/03 22:09:35;;;;;;;26.25;9.15;;;;;;;22.46;63.54;101241.73;2274444;77;49893;-73
2023/10/03 22:12:38;;;;;;;18.12;8.45;;;;;;;22.43;63.50;101255.58;2262195;76;50243;-73
2023/10/03 22:15:40;;;;;;;20.00;8.90;;;;;;;22.44;63.58;101258.09;2309351;76;50365;-73
2023/10/03 22:18:43;;;;;;;19.55;8.90;;;;;;;22.43;63.55;101260.97;2288856;75;51385;-73
2023/10/03 22:21:50;;;;;;;22.00;8.38;;;;;;;22.41;63.54;101270.63;2283666;76;52278;-73
2023/10/03 22:24:51;;;;;;;21.30;8.60;;;;;;;22.42;63.55;101267.41;2280994;76;22343;-74
2023/10/03 22:27:54;;;;;;;21.15;8.90;;;;;;;22.41;63.54;101269.80;2312181;75;51342;-74
2023/10/03 22:30:56;;;;;;;18.67;8.70;;;;;;;22.41;63.50;101272.48;2283112;76;50520;-73
2023/10/03 22:33:58;;;;;;;20.95;8.50;;;;;;;22.42;63.52;101270.10;2286023;76;51378;-73
2023/10/03 22:37:00;;;;;;;19.42;8.08;;;;;;;22.42;63.42;101282.23;2255089;78;51152;-72
2023/10/03 22:40:03;;;;;;;18.50;7.80;;;;;;;22.42;63.45;101279.54;2255218;78;50103;-73
2023/10/03 22:43:11;;;;;;;20.72;8.78;;;;;;;22.42;63.40;101275.50;2289167;76;51457;-73
2023/10/03 22:46:10;;;;;;;23.45;8.68;;;;;;;22.43;63.41;101287.94;2274596;77;22276;-73
2023/10/03 22:49:12;;;;;;;21.40;8.10;;;;;;;22.42;63.35;101286.28;2276131;77;50251;-73
2023/10/03 22:52:14;;;;;;;22.82;8.63;;;;;;;22.42;63.29;101292.50;2300512;76;50658;-73
2023/10/03 22:55:18;;;;;;;20.12;8.88;;;;;;;22.43;63.32;101300.07;2276028;77;50367;-73
2023/10/03 22:58:20;;;;;;;23.18;8.65;;;;;;;22.42;63.31;101298.41;2275836;77;51519;-73
2023/10/03 23:01:23;;;;;;;19.75;8.48;;;;;;;22.44;63.23;101309.84;2250930;77;51015;-73
2023/10/03 23:04:25;;;;;;;16.17;7.97;;;;;;;22.42;63.23;101311.37;2297200;76;51479;-72
2023/10/03 23:07:27;;;;;;;20.40;8.35;;;;;;;22.42;63.23;101314.59;2297573;77;50669;-74
2023/10/03 23:10:30;;;;;;;26.12;8.78;;;;;;;22.41;63.21;101316.98;2250936;77;50884;-74
2023/10/03 23:13:32;;;;;;;20.30;7.92;;;;;;;22.41;63.19;101323.20;2291000;76;50665;-74
2023/10/03 23:16:34;;;;;;;21.40;8.55;;;;;;;22.42;63.31;101330.77;2306210;76;51357;-73
2023/10/03 23:19:37;;;;;;;17.65;7.60;;;;;;;22.42;63.18;101341.04;2318552;76;50181;-73
2023/10/03 23:22:39;;;;;;;21.30;8.40;;;;;;;22.43;63.11;101348.61;2306342;76;50012;-73
2023/10/03 23:25:41;;;;;;;21.42;7.80;;;;;;;22.42;63.17;101345.60;2318356;75;50668;-74
2023/10/03 23:28:43;;;;;;;18.55;7.40;;;;;;;22.42;63.15;101349.65;2306333;76;51540;-74
2023/10/03 23:31:46;;;;;;;20.55;7.83;;;;;;;22.41;63.15;101339.91;2332690;76;51415;-74
2023/10/03 23:34:48;;;;;;;29.23;8.50;;;;;;;22.41;63.17;101347.98;2305945;76;52571;-73
2023/10/03 23:37:51;;;;;;;16.67;7.65;;;;;;;22.42;63.11;101342.91;2332589;75;51358;-73
2023/10/03 23:40:53;;;;;;;20.27;7.53;;;;;;;22.42;63.14;101357.73;2306419;76;51483;-73
2023/10/03 23:43:55;;;;;;;18.45;8.13;;;;;;;22.41;63.11;101361.48;2296695;76;51376;-73